createdAt,value
2022-10-01T00:01:21.299Z,24.58
2022-10-01T00:04:31.843Z,20.33
2022-10-01T00:07:44.702Z,23.33
2022-10-01T00:10:53.330Z,24.10
2022-10-01T00:13:59.297Z,22.15
2022-10-01T00:17:08.344Z,22.17
2022-10-01T00:20:15.498Z,24.37
2022-10-01T00:23:24.571Z,26.12
2022-10-01T00:26:33.255Z,25.40
2022-10-01T00:29:42.397Z,23.45
2022-10-01T00:32:48.383Z,24.35
2022-10-01T00:35:58.023Z,24.33
2022-10-01T00:39:04.352Z,25.67
2022-10-01T00:42:24.332Z,26.10
2022-10-01T00:45:33.290Z,25.62
2022-10-01T00:48:50.761Z,27.05
2022-10-01T00:52:08.430Z,28.15
2022-10-01T00:58:29.541Z,26.77
2022-10-01T01:01:39.681Z,24.85
2022-10-01T01:04:49.799Z,24.33
2022-10-01T01:11:50.176Z,23.60
2022-10-01T01:15:20.330Z,26.48
2022-10-01T01:18:52.712Z,23.67
2022-10-01T01:22:06.162Z,27.25
2022-10-01T01:25:19.972Z,24.23
2022-10-01T01:28:41.007Z,25.25
2022-10-01T01:31:50.388Z,23.27
2022-10-01T01:35:02.411Z,24.30
2022-10-01T01:38:16.531Z,24.77
2022-10-01T01:41:27.116Z,28.23
2022-10-01T01:44:41.866Z,28.17
2022-10-01T01:47:50.096Z,26.42
2022-10-01T01:51:07.139Z,30.05
2022-10-01T01:54:15.510Z,27.08
2022-10-01T01:57:28.047Z,26.33
2022-10-01T02:00:38.229Z,29.30
2022-10-01T02:03:48.237Z,28.55
2022-10-01T02:07:16.811Z,31.25
2022-10-01T02:10:45.043Z,26.23
2022-10-01T02:14:33.752Z,25.10
2022-10-01T02:18:21.481Z,26.00
2022-10-01T02:21:54.957Z,23.08
2022-10-01T02:25:05.444Z,25.33
2022-10-01T02:28:19.676Z,24.67
2022-10-01T02:31:35.042Z,24.70
2022-10-01T02:34:43.611Z,24.67
2022-10-01T02:37:55.143Z,26.40
2022-10-01T02:41:06.083Z,24.48
2022-10-01T02:44:23.094Z,22.60
2022-10-01T02:47:38.722Z,23.77
2022-10-01T02:50:58.732Z,22.42
2022-10-01T02:54:17.542Z,24.40
2022-10-01T02:57:28.750Z,28.42
2022-10-01T03:00:36.144Z,24.42
2022-10-01T03:03:46.786Z,24.73
2022-10-01T03:06:52.750Z,23.17
2022-10-01T03:10:00.821Z,26.40
2022-10-01T03:13:08.789Z,25.55
2022-10-01T03:16:16.216Z,26.08
2022-10-01T03:19:25.300Z,27.58
2022-10-01T03:22:36.034Z,26.37
2022-10-01T03:25:44.354Z,30.80
2022-10-01T03:28:54.982Z,26.57
2022-10-01T03:32:04.808Z,24.85
2022-10-01T03:35:13.240Z,27.17
2022-10-01T03:38:21.973Z,28.08
2022-10-01T03:41:32.894Z,27.33
2022-10-01T03:44:41.414Z,27.77
2022-10-01T03:47:56.248Z,24.58
2022-10-01T03:51:02.665Z,27.87
2022-10-01T03:54:10.212Z,23.50
2022-10-01T03:57:17.661Z,29.35
2022-10-01T04:00:24.132Z,30.75
2022-10-01T04:03:31.241Z,30.33
2022-10-01T04:06:39.449Z,32.17
2022-10-01T04:09:49.561Z,27.35
2022-10-01T04:12:58.940Z,29.60
2022-10-01T04:16:13.681Z,25.83
2022-10-01T04:19:22.802Z,26.37
2022-10-01T04:22:31.618Z,26.62
2022-10-01T04:25:38.240Z,25.50
2022-10-01T04:28:48.981Z,27.92
2022-10-01T04:31:55.450Z,29.55
2022-10-01T04:35:02.089Z,25.50
2022-10-01T04:38:13.127Z,27.27
2022-10-01T04:41:22.609Z,28.08
2022-10-01T04:44:31.571Z,28.35
2022-10-01T04:47:49.268Z,31.30
2022-10-01T04:50:56.596Z,34.10
2022-10-01T04:54:04.390Z,28.25
2022-10-01T04:57:14.666Z,26.60
2022-10-01T05:00:26.864Z,28.23
2022-10-01T05:03:33.360Z,26.73
2022-10-01T05:06:43.389Z,28.17
2022-10-01T05:09:53.032Z,27.80
2022-10-01T05:13:02.899Z,30.25
2022-10-01T05:16:13.091Z,31.50
2022-10-01T05:19:20.037Z,29.90
2022-10-01T05:22:30.082Z,34.67
2022-10-01T05:28:45.532Z,28.87
2022-10-01T05:31:51.934Z,29.37
2022-10-01T05:34:58.754Z,32.55
2022-10-01T05:38:07.458Z,45.00
2022-10-01T05:41:15.282Z,34.05
2022-10-01T05:44:22.731Z,34.70
2022-10-01T05:47:29.841Z,39.90
2022-10-01T05:50:45.077Z,52.30
2022-10-01T05:53:55.318Z,35.53
2022-10-01T05:57:03.106Z,49.22
2022-10-01T06:00:10.733Z,34.05
2022-10-01T06:03:18.261Z,37.72
2022-10-01T06:06:30.918Z,35.75
2022-10-01T06:09:38.370Z,37.83
2022-10-01T06:12:45.040Z,37.15
2022-10-01T06:15:55.347Z,28.92
2022-10-01T06:19:05.271Z,32.72
2022-10-01T06:22:12.965Z,35.60
2022-10-01T06:25:19.280Z,32.97
2022-10-01T06:28:28.091Z,29.48
2022-10-01T06:31:35.714Z,31.73
2022-10-01T06:34:43.705Z,30.08
2022-10-01T06:37:51.801Z,33.20
2022-10-01T06:41:02.311Z,32.35
2022-10-01T06:47:19.336Z,29.45
2022-10-01T06:50:33.813Z,30.95
2022-10-01T06:53:42.286Z,32.85
2022-10-01T06:56:51.809Z,29.87
2022-10-01T06:59:58.968Z,28.08
2022-10-01T07:03:11.693Z,30.85
2022-10-01T07:06:18.616Z,25.20
2022-10-01T07:09:26.564Z,24.77
2022-10-01T07:12:34.801Z,22.48
2022-10-01T07:15:44.354Z,25.02
2022-10-01T07:18:53.023Z,20.00
2022-10-01T07:22:01.114Z,26.62
2022-10-01T07:25:10.210Z,24.08
2022-10-01T07:31:24.731Z,23.95
2022-10-01T07:34:32.887Z,22.52
2022-10-01T07:37:38.974Z,23.98
2022-10-01T07:40:52.581Z,23.67
2022-10-01T07:43:57.592Z,25.73
2022-10-01T07:47:07.065Z,23.50
2022-10-01T07:50:15.469Z,22.13
2022-10-01T07:53:25.146Z,22.80
2022-10-01T07:56:33.097Z,24.12
2022-10-01T07:59:43.372Z,25.37
2022-10-01T08:02:51.340Z,20.37
2022-10-01T08:05:57.920Z,17.73
2022-10-01T08:09:08.069Z,19.77
2022-10-01T08:12:15.927Z,18.85
2022-10-01T08:15:22.077Z,18.23
2022-10-01T08:18:31.497Z,17.48
2022-10-01T08:21:39.127Z,19.17
2022-10-01T08:24:47.332Z,17.80
2022-10-01T08:27:55.935Z,19.67
2022-10-01T08:31:13.082Z,18.20
2022-10-01T08:34:19.307Z,16.83
2022-10-01T08:37:29.701Z,21.87
2022-10-01T08:40:44.054Z,19.25
2022-10-01T08:43:53.222Z,19.45
2022-10-01T08:47:09.217Z,22.70
2022-10-01T08:50:30.861Z,21.15
2022-10-01T08:53:56.246Z,20.62
2022-10-01T08:57:03.667Z,17.98
2022-10-01T09:00:14.976Z,21.48
2022-10-01T09:03:19.583Z,18.87
2022-10-01T09:06:27.859Z,19.02
2022-10-01T09:09:52.051Z,22.42
2022-10-01T09:13:26.977Z,19.55
2022-10-01T09:17:00.546Z,20.65
2022-10-01T09:20:28.329Z,20.90
2022-10-01T09:23:55.956Z,20.27
2022-10-01T09:27:05.865Z,20.58
2022-10-01T09:30:26.589Z,21.65
2022-10-01T09:33:43.626Z,20.52
2022-10-01T09:37:22.253Z,22.60
2022-10-01T09:40:35.512Z,28.77
2022-10-01T09:43:43.901Z,24.52
2022-10-01T09:46:52.766Z,21.77
2022-10-01T09:50:04.147Z,20.80
2022-10-01T09:53:21.961Z,20.10
2022-10-01T09:56:37.865Z,19.27
2022-10-01T09:59:54.511Z,20.20
2022-10-01T10:03:01.362Z,19.48
2022-10-01T10:06:08.355Z,21.73
2022-10-01T10:09:25.418Z,21.92
2022-10-01T10:12:36.701Z,21.58
2022-10-01T10:16:01.767Z,19.87
2022-10-01T10:19:34.730Z,23.25
2022-10-01T10:22:40.408Z,20.15
2022-10-01T10:25:55.317Z,19.95
2022-10-01T10:29:05.033Z,19.85
2022-10-01T10:32:29.922Z,17.65
2022-10-01T10:35:39.928Z,18.73
2022-10-01T10:38:54.375Z,17.77
2022-10-01T10:42:05.214Z,19.87
2022-10-01T10:45:18.324Z,14.05
2022-10-01T10:48:31.939Z,15.05
2022-10-01T10:51:47.153Z,15.88
2022-10-01T10:54:55.894Z,15.65
2022-10-01T10:58:16.604Z,10.40
2022-10-01T11:01:33.905Z,9.32
2022-10-01T11:04:48.065Z,12.40
2022-10-01T11:07:58.408Z,6.70
2022-10-01T11:11:28.377Z,7.57
2022-10-01T11:14:59.000Z,7.68
2022-10-01T11:18:17.586Z,5.60
2022-10-01T11:21:41.289Z,6.60
2022-10-01T11:25:08.549Z,6.45
2022-10-01T11:28:36.411Z,6.90
2022-10-01T11:34:56.916Z,5.57
2022-10-01T11:38:25.430Z,7.57
2022-10-01T11:41:39.118Z,8.05
2022-10-01T11:45:00.962Z,6.05
2022-10-01T11:48:24.711Z,8.07
2022-10-01T11:51:46.878Z,6.07
2022-10-01T11:55:38.260Z,6.03
2022-10-01T11:59:03.037Z,5.43
2022-10-01T12:02:31.391Z,5.93
2022-10-01T12:05:39.653Z,3.87
2022-10-01T12:08:57.858Z,5.40
2022-10-01T12:12:16.229Z,7.83
2022-10-01T12:15:24.351Z,5.43
2022-10-01T12:18:45.837Z,5.35
2022-10-01T12:21:52.080Z,3.62
2022-10-01T12:24:58.308Z,8.18
2022-10-01T12:28:13.856Z,9.20
2022-10-01T12:31:31.648Z,7.78
2022-10-01T12:34:59.651Z,6.28
2022-10-01T12:38:35.751Z,7.93
2022-10-01T12:42:00.253Z,3.60
2022-10-01T12:45:39.489Z,6.22
2022-10-01T12:49:12.857Z,5.50
2022-10-01T12:52:20.845Z,4.93
2022-10-01T12:55:37.644Z,5.28
2022-10-01T12:58:56.835Z,4.12
2022-10-01T13:02:06.482Z,3.12
2022-10-01T13:08:17.560Z,2.90
2022-10-01T13:11:44.617Z,4.10
2022-10-01T13:14:50.547Z,4.20
2022-10-01T13:18:18.691Z,3.67
2022-10-01T13:21:33.107Z,3.62
2022-10-01T13:24:49.921Z,5.35
2022-10-01T13:28:28.494Z,2.77
2022-10-01T13:31:40.445Z,5.72
2022-10-01T13:34:48.329Z,5.95
2022-10-01T13:37:56.330Z,4.35
2022-10-01T13:41:06.839Z,6.80
2022-10-01T13:44:27.247Z,5.87
2022-10-01T13:47:39.990Z,6.15
2022-10-01T13:51:00.371Z,5.95
2022-10-01T13:54:18.844Z,6.57
2022-10-01T13:57:36.738Z,14.80
2022-10-01T14:00:55.354Z,11.75
2022-10-01T14:04:16.018Z,14.82
2022-10-01T14:07:29.349Z,15.18
2022-10-01T14:11:02.422Z,11.63
2022-10-01T14:14:48.142Z,13.07
2022-10-01T14:18:00.400Z,13.00
2022-10-01T14:21:36.539Z,11.73
2022-10-01T14:25:04.671Z,14.77
2022-10-01T14:28:41.838Z,13.40
2022-10-01T14:31:57.369Z,13.38
2022-10-01T14:35:39.014Z,11.45
2022-10-01T14:38:46.932Z,11.93
2022-10-01T14:41:56.513Z,20.83
2022-10-01T14:45:03.232Z,12.88
2022-10-01T14:48:08.707Z,12.30
2022-10-01T14:51:29.426Z,12.48
2022-10-01T14:54:48.002Z,13.05
2022-10-01T14:57:59.563Z,14.85
2022-10-01T15:04:23.047Z,19.15
2022-10-01T15:07:36.108Z,19.23
2022-10-01T15:10:53.117Z,21.52
2022-10-01T15:14:15.380Z,20.33
2022-10-01T15:17:25.669Z,26.87
2022-10-01T15:20:36.375Z,21.92
2022-10-01T15:23:46.201Z,20.40
2022-10-01T15:26:56.960Z,21.00
2022-10-01T15:33:22.813Z,17.45
2022-10-01T15:36:30.711Z,19.55
2022-10-01T15:39:44.454Z,14.60
2022-10-01T15:43:23.451Z,17.70
2022-10-01T15:46:33.962Z,13.55
2022-10-01T15:49:38.975Z,14.82
2022-10-01T15:52:54.298Z,11.57
2022-10-01T15:56:09.918Z,12.00
2022-10-01T15:59:20.755Z,12.73
2022-10-01T16:02:30.666Z,13.93
2022-10-01T16:05:47.608Z,9.82
2022-10-01T16:09:06.563Z,11.43
2022-10-01T16:12:23.693Z,7.90
2022-10-01T16:15:30.552Z,9.80
2022-10-01T16:18:37.914Z,6.87
2022-10-01T16:21:45.396Z,7.15
2022-10-01T16:24:59.488Z,8.25
2022-10-01T16:28:20.110Z,6.97
2022-10-01T16:31:27.734Z,10.70
2022-10-01T16:34:36.943Z,6.37
2022-10-01T16:40:55.269Z,7.53
2022-10-01T16:44:06.588Z,7.90
2022-10-01T16:47:14.407Z,5.87
2022-10-01T16:50:22.769Z,6.47
2022-10-01T16:53:29.050Z,6.32
2022-10-01T16:56:35.426Z,5.22
2022-10-01T16:59:40.708Z,4.82
2022-10-01T17:02:50.468Z,6.80
2022-10-01T17:05:59.129Z,6.70
2022-10-01T17:09:07.135Z,4.47
2022-10-01T17:12:14.668Z,5.65
2022-10-01T17:15:28.305Z,4.47
2022-10-01T17:18:34.666Z,6.47
2022-10-01T17:21:43.055Z,3.42
2022-10-01T17:24:52.053Z,3.30
2022-10-01T17:28:00.725Z,3.58
2022-10-01T17:31:12.285Z,4.72
2022-10-01T17:34:25.184Z,4.53
2022-10-01T17:37:30.678Z,5.40
2022-10-01T17:40:41.749Z,5.32
2022-10-01T17:46:59.814Z,11.52
2022-10-01T17:50:06.049Z,7.07
2022-10-01T17:53:13.558Z,8.38
2022-10-01T17:56:20.565Z,8.23
2022-10-01T17:59:31.778Z,8.82
2022-10-01T18:02:42.829Z,8.95
2022-10-01T18:05:52.086Z,10.52
2022-10-01T18:08:59.545Z,9.90
2022-10-01T18:12:07.793Z,10.00
2022-10-01T18:15:15.522Z,11.30
2022-10-01T18:21:53.169Z,10.38
2022-10-01T18:25:00.682Z,9.82
2022-10-01T18:28:07.391Z,11.85
2022-10-01T18:31:15.705Z,9.75
2022-10-01T18:34:44.192Z,12.70
2022-10-01T18:37:57.913Z,10.88
2022-10-01T18:41:09.108Z,11.15
2022-10-01T18:44:20.448Z,12.68
2022-10-01T18:48:10.736Z,11.30
2022-10-01T18:55:01.734Z,11.63
2022-10-01T18:58:16.659Z,12.52
2022-10-01T19:01:46.282Z,12.40
2022-10-01T19:05:16.661Z,14.87
2022-10-01T19:08:40.325Z,14.87
2022-10-01T19:11:56.867Z,18.75
2022-10-01T19:15:38.115Z,14.27
2022-10-01T19:19:07.993Z,16.20
2022-10-01T19:22:39.724Z,17.95
2022-10-01T19:25:51.047Z,18.40
2022-10-01T19:29:27.435Z,17.15
2022-10-01T19:32:41.869Z,15.45
2022-10-01T19:35:53.388Z,16.60
2022-10-01T19:39:04.697Z,15.32
2022-10-01T19:42:20.873Z,14.48
2022-10-01T19:45:54.913Z,14.65
2022-10-01T19:49:09.788Z,13.20
2022-10-01T19:52:19.105Z,9.75
2022-10-01T19:55:26.700Z,10.13
2022-10-01T19:58:33.851Z,8.75
2022-10-01T20:01:50.428Z,8.57
2022-10-01T20:05:05.052Z,8.65
2022-10-01T20:08:57.148Z,9.52
2022-10-01T20:12:29.846Z,9.65
2022-10-01T20:15:57.978Z,11.60
2022-10-01T20:19:10.969Z,10.25
2022-10-01T20:22:36.866Z,10.95
2022-10-01T20:25:48.599Z,7.80
2022-10-01T20:29:31.294Z,10.20
2022-10-01T20:33:01.801Z,10.93
2022-10-01T20:36:23.423Z,7.57
2022-10-01T20:39:35.128Z,10.38
2022-10-01T20:42:47.964Z,9.23
2022-10-01T20:45:54.843Z,10.27
2022-10-01T20:49:18.631Z,8.65
2022-10-01T20:52:42.689Z,8.70
2022-10-01T20:56:02.825Z,7.93
2022-10-01T20:59:25.669Z,7.20
2022-10-01T21:02:45.749Z,7.47
2022-10-01T21:09:14.619Z,7.45
2022-10-01T21:12:25.562Z,6.65
2022-10-01T21:15:46.617Z,6.95
2022-10-01T21:18:58.202Z,10.23
2022-10-01T21:22:17.390Z,6.47
2022-10-01T21:25:38.426Z,7.32
2022-10-01T21:29:12.294Z,6.12
2022-10-01T21:32:38.250Z,4.90
2022-10-01T21:35:54.410Z,3.40
2022-10-01T21:39:13.078Z,2.83
2022-10-01T21:42:53.243Z,3.87
2022-10-01T21:46:17.415Z,7.37
2022-10-01T21:49:38.489Z,3.80
2022-10-01T21:52:51.053Z,3.40
2022-10-01T21:56:34.597Z,4.37
2022-10-01T22:00:12.237Z,4.03
2022-10-01T22:03:37.132Z,3.83
2022-10-01T22:07:03.260Z,2.97
2022-10-01T22:10:20.138Z,3.03
2022-10-01T22:13:29.628Z,2.90
2022-10-01T22:16:41.751Z,4.47
2022-10-01T22:19:54.021Z,3.75
2022-10-01T22:23:03.321Z,1.80
2022-10-01T22:26:16.548Z,2.33
2022-10-01T22:29:33.864Z,1.70
2022-10-01T22:33:00.837Z,2.95
2022-10-01T22:36:24.644Z,2.12
2022-10-01T22:39:34.840Z,2.40
2022-10-01T22:42:46.469Z,2.47
2022-10-01T22:46:23.763Z,3.03
2022-10-01T22:49:46.039Z,2.03
2022-10-01T22:53:06.048Z,4.53
2022-10-01T22:56:20.717Z,2.30
2022-10-01T23:00:13.994Z,3.30
2022-10-01T23:03:35.452Z,2.03
2022-10-01T23:07:07.648Z,4.32
2022-10-01T23:10:21.876Z,3.70
2022-10-01T23:14:01.799Z,3.70
2022-10-01T23:17:23.181Z,2.58
2022-10-01T23:20:36.984Z,1.58
2022-10-01T23:23:44.151Z,2.65
2022-10-01T23:27:01.199Z,3.15
2022-10-01T23:30:16.681Z,2.95
2022-10-01T23:33:40.236Z,1.70
2022-10-01T23:37:05.282Z,1.30
2022-10-01T23:40:16.898Z,4.45
2022-10-01T23:43:30.862Z,3.33
2022-10-01T23:46:40.548Z,1.65
2022-10-01T23:49:59.470Z,1.80
2022-10-01T23:53:23.027Z,2.62
2022-10-01T23:56:51.491Z,1.98
